Bei Facebook empfehlenBei Twitter postenGoogle plusPinterest

Das Wetter im Erzgebirge am 11.01.2015

Wetter und Klima am 11.01.2015 Holzhau im Erzgebirge (630m ü.NN)
Letzte gemessene Temperatur und Uhrzeit der Messung23:45:00 Uhr-0.40 °C
Temperatur (Maximum / Höchstwert) und Uhrzeit der Messung00:00:00 Uhr0.80 °C
Temperatur (Minimum / Tiefstwert) und Uhrzeit der Messung18:00:00-1.10 °C
Errechneter Absolutwert der Temperaturschwankungen zwischen Tmin und Tmax des Tages1.90 K
Errechnete Tagesmitteltemperatur-0.39896 °C
Gesamt - Niederschlag des Tages (in flüssiger Form)0.00 Liter / m²
Luftdruck (Maximum / Höchstwert) und Zeitpunkt der Messung23:45:00 Uhr1012.70 hPa
Luftdruck (Minimum / Tiefstwert) und Zeitpunkt der Messung07:00:00 Uhr1005.90 hPa
Errechneter Absolutwert der Luftdruckschwankungen des Tages6.80 hPa
Höchste gemessene Windgeschwindigkeit und Uhrzeit der Messung15:00:00 Uhr24.12 km/h
Errechnete Windhäufigkeit in Relation zu den Messwerten des Tages32.29167 %
Niedrigste Windkühle (Windchill) und Zeitpunkt der Messung15:00:00 Uhr-5.90 °C
Taupunkt (Maximum / Höchstwert) und Uhrzeit der Messung00:00:00 Uhr-1.40 °C
Taupunkt (Minimum / Tiefstwert) und Uhrzeit der Messung10:00:00-3.90 °C
Anzahl der automatisch eingelesenen Messwerte 96

Detaillierte Wetter- und Klima- Messwerte für den 11.01.2015 in Holzhau im Erzgebirge (630m ü.NN)
ZeitTemperaturLuftdruckRel. LuftfeuchteWindWindrichtungWindchillTaupunktNiederschlag l/m²
23:45:00-0.40 °C1012.70 hPa92.00 %-1.70 °C 
23:30:00-0.40 °C1012.50 hPa92.00 %3.96 km/hW-0.40 °C-1.70 °C 
23:15:00-0.40 °C1012.50 hPa92.00 %7.92 km/hWNW-3.20 °C-1.70 °C 
23:00:00-0.30 °C1012.60 hPa91.00 %-1.70 °C 
22:45:00-0.20 °C1012.70 hPa91.00 %-1.60 °C 
22:30:00-0.20 °C1012.60 hPa90.00 %-1.80 °C 
22:15:00-0.30 °C1012.40 hPa90.00 %-1.90 °C 
22:00:00-0.30 °C1012.40 hPa90.00 %-1.90 °C 
21:45:00-0.20 °C1012.30 hPa89.00 %-2.00 °C 
21:30:00-0.20 °C1012.20 hPa89.00 %7.56 km/hW-2.80 °C-2.00 °C 
21:15:00-0.20 °C1012.30 hPa89.00 %-2.00 °C 
21:00:00-0.40 °C1012.10 hPa89.00 %-2.20 °C 
20:45:00-0.40 °C1012.10 hPa89.00 %-2.20 °C 
20:30:00-0.40 °C1011.90 hPa89.00 %-2.20 °C 
20:15:00-0.50 °C1011.90 hPa90.00 %-2.10 °C 
20:00:00-0.60 °C1011.80 hPa90.00 %11.88 km/hNNW-4.50 °C-2.20 °C 
19:45:00-0.60 °C1011.70 hPa90.00 %-2.20 °C 
19:30:00-0.60 °C1011.40 hPa90.00 %6.48 km/hWNW-2.90 °C-2.20 °C 
19:15:00-0.70 °C1011.10 hPa91.00 %-2.10 °C 
19:00:00-0.90 °C1011.40 hPa92.00 %-2.20 °C 
18:45:00-1.00 °C1011.10 hPa92.00 %-2.30 °C 
18:30:00-0.90 °C1010.80 hPa92.00 %-2.20 °C 
18:15:00-1.00 °C1010.60 hPa92.00 %-2.30 °C 
18:00:00-1.10 °C1010.60 hPa92.00 %-2.40 °C 
17:45:00-1.00 °C1010.60 hPa92.00 %-2.30 °C 
17:30:00-0.80 °C1010.30 hPa91.00 %-2.20 °C 
17:15:00-0.90 °C1010.10 hPa91.00 %-2.30 °C 
17:00:00-0.90 °C1010.20 hPa92.00 %-2.20 °C 
16:45:00-0.90 °C1010.00 hPa91.00 %-2.30 °C 
16:30:00-0.90 °C1010.00 hPa91.00 %-2.30 °C 
16:15:00-0.80 °C1009.90 hPa90.00 %-2.40 °C 
16:00:00-0.70 °C1009.60 hPa89.00 %-2.50 °C 
15:45:00-0.20 °C1009.50 hPa87.00 %-2.30 °C 
15:30:00-0.10 °C1009.40 hPa85.00 %-2.60 °C 
15:15:00-0.10 °C1009.30 hPa86.00 %-2.40 °C 
15:00:00-0.10 °C1009.40 hPa86.00 %24.12 km/hW-5.90 °C-2.40 °C 
14:45:00-0.10 °C1009.20 hPa85.00 %9.36 km/hSW-3.30 °C-2.60 °C 
14:30:00-0.40 °C1008.70 hPa87.00 %7.92 km/hNW-3.20 °C-2.50 °C 
14:15:00-0.40 °C1008.70 hPa86.00 %6.48 km/hW-2.70 °C-2.70 °C 
14:00:00-0.50 °C1008.40 hPa86.00 %3.96 km/hW-0.50 °C-2.80 °C 
13:45:00-0.40 °C1008.50 hPa85.00 %11.52 km/hWNW-4.20 °C-2.90 °C 
13:30:00-0.40 °C1008.50 hPa84.00 %11.16 km/hW-4.10 °C-3.00 °C 
13:15:00-0.20 °C1008.60 hPa83.00 %-3.00 °C 
13:00:000.30 °C1008.60 hPa77.00 %-3.20 °C 
12:45:000.40 °C1008.60 hPa76.00 %5.04 km/hWSW-1.20 °C-3.30 °C 
12:30:000.30 °C1008.60 hPa77.00 %6.12 km/hWSW-1.70 °C-3.20 °C 
12:15:000.60 °C1008.50 hPa75.00 %18.72 km/hWNW-4.30 °C-3.30 °C 
12:00:000.40 °C1008.30 hPa75.00 %-3.50 °C 
11:45:000.30 °C1008.10 hPa76.00 %7.20 km/hW-2.10 °C-3.40 °C 
11:30:000.20 °C1008.10 hPa76.00 %8.64 km/hW-2.70 °C-3.50 °C 
11:15:000.30 °C1008.00 hPa76.00 %-3.40 °C 
11:00:000.20 °C1008.00 hPa76.00 %3.96 km/hWNW0.20 °C-3.50 °C 
10:45:000.10 °C1007.80 hPa78.00 %-3.30 °C 
10:30:00-0.10 °C1007.60 hPa79.00 %-3.70 °C 
10:15:00-0.20 °C1007.40 hPa80.00 %21.60 km/hWSW-5.70 °C-3.60 °C 
10:00:00-0.50 °C1007.20 hPa80.00 %-3.90 °C 
09:45:00-0.50 °C1006.80 hPa80.00 %-3.90 °C 
09:30:00-0.50 °C1006.40 hPa80.00 %-3.90 °C 
09:15:00-0.50 °C1006.60 hPa80.00 %-3.90 °C 
09:00:00-0.50 °C1006.80 hPa81.00 %-3.70 °C 
08:45:00-0.60 °C1006.60 hPa81.00 %-3.80 °C 
08:30:00-0.60 °C1006.20 hPa81.00 %4.32 km/hWNW-0.60 °C-3.80 °C 
08:15:00-0.60 °C1006.30 hPa81.00 %-3.80 °C 
08:00:00-0.60 °C1006.10 hPa82.00 %-3.60 °C 
07:45:00-0.50 °C1006.10 hPa82.00 %-3.50 °C 
07:30:00-0.60 °C1006.10 hPa83.00 %-3.40 °C 
07:15:00-0.60 °C1006.00 hPa83.00 %-3.40 °C 
07:00:00-0.70 °C1005.90 hPa83.00 %-3.50 °C 
06:45:00-0.70 °C1006.00 hPa82.00 %7.92 km/hWNW-3.50 °C-3.70 °C 
06:30:00-0.70 °C1006.00 hPa82.00 %-3.70 °C 
06:15:00-0.70 °C1006.00 hPa83.00 %-3.50 °C 
06:00:00-0.80 °C1006.00 hPa83.00 %-3.60 °C 
05:45:00-0.70 °C1006.00 hPa83.00 %-3.50 °C 
05:30:00-0.80 °C1005.90 hPa84.00 %-3.40 °C 
05:15:00-1.10 °C1006.00 hPa84.00 %-3.70 °C 
05:00:00-1.00 °C1006.30 hPa84.00 %-3.60 °C 
04:45:00-1.00 °C1006.20 hPa84.00 %-3.60 °C 
04:30:00-0.80 °C1006.50 hPa83.00 %7.56 km/hNNW-3.50 °C-3.60 °C 
04:15:00-0.70 °C1006.70 hPa84.00 %-3.30 °C 
04:00:00-0.70 °C1006.80 hPa84.00 %-3.30 °C 
03:45:00-0.70 °C1006.50 hPa83.00 %-3.50 °C 
03:30:00-0.60 °C1006.80 hPa84.00 %10.08 km/hNW-4.10 °C-3.20 °C 
03:15:00-0.60 °C1007.00 hPa84.00 %18.72 km/hW-5.80 °C-3.20 °C 
03:00:00-0.50 °C1007.20 hPa84.00 %-3.10 °C 
02:45:00-0.50 °C1007.10 hPa84.00 %8.28 km/hNNW-3.40 °C-3.10 °C 
02:30:00-0.40 °C1007.40 hPa84.00 %4.68 km/hWNW-0.40 °C-3.00 °C 
02:15:00-0.20 °C1007.40 hPa84.00 %-2.80 °C 
02:00:00-0.20 °C1007.70 hPa84.00 %2.52 km/hWNW-0.20 °C-2.80 °C 
01:45:00-0.20 °C1007.40 hPa84.00 %11.16 km/hNW-3.80 °C-2.80 °C 
01:30:00-0.10 °C1007.50 hPa84.00 %-2.80 °C 
01:15:000.00 °C1007.60 hPa84.00 %-2.70 °C 
01:00:000.20 °C1007.60 hPa84.00 %9.36 km/hWNW-2.90 °C-2.20 °C 
00:45:000.20 °C1007.60 hPa84.00 %-2.20 °C 
00:30:000.30 °C1007.70 hPa84.00 %9.36 km/hNW-2.80 °C-2.10 °C 
00:15:000.40 °C1007.70 hPa84.00 %16.92 km/hW-4.30 °C-2.00 °C 
00:00:000.80 °C1007.90 hPa85.00 %-1.40 °C 

Permanenter Link zu dieser Seite: Wetter im Erzgebirge am 11.01.2015
Performance-Info: Die Erstellung der Seite / Statistik(en) / Tabelle(n) erforderte 5 Datenbankserver-Abfrage(n) und dauerte 99 Millisekunden. (Dieser Messwert ist von der Gesamt-Auslastung des Servers abhängig.)
Erzgebirge - Wetter | Erzgebirge - Wetter (Mobilgeräte) | Komplette Klimadatenbank